createdAt,value
2022-08-08T06:31:00.817Z,24.30
2022-08-08T06:34:25.785Z,24.50
2022-08-08T06:36:53.587Z,25.20
2022-08-08T06:39:24.838Z,25.80
2022-08-08T06:41:58.913Z,26.40
2022-08-08T06:44:42.566Z,26.90
2022-08-08T06:47:10.824Z,27.30
2022-08-08T06:49:55.559Z,27.60
2022-08-08T06:52:27.702Z,27.80
2022-08-08T06:54:58.640Z,28.20
2022-08-08T06:57:29.405Z,28.70
2022-08-08T07:00:12.888Z,29.10
2022-08-08T07:02:46.382Z,29.00
2022-08-08T07:05:20.536Z,29.20
2022-08-08T07:07:55.204Z,29.60
2022-08-08T07:10:26.156Z,29.80
2022-08-08T07:13:02.571Z,29.70
2022-08-08T07:16:06.309Z,29.80
2022-08-08T07:18:57.463Z,29.80
2022-08-08T07:21:33.041Z,29.30
2022-08-08T07:24:12.873Z,29.10
2022-08-08T07:26:54.243Z,29.00
2022-08-08T07:29:59.985Z,28.80
2022-08-08T07:32:15.607Z,28.60
2022-08-08T07:35:00.083Z,28.30
2022-08-08T07:37:49.488Z,27.60
2022-08-08T07:40:30.082Z,27.20
2022-08-08T07:43:09.301Z,26.90
2022-08-08T07:46:05.089Z,26.60
2022-08-08T07:48:32.354Z,26.30
2022-08-08T07:51:04.187Z,26.30
2022-08-08T07:54:02.069Z,26.30
2022-08-08T07:56:44.105Z,26.20
2022-08-08T07:59:14.962Z,26.20
2022-08-08T08:02:35.041Z,26.20
2022-08-08T08:04:52.346Z,26.20
2022-08-08T08:07:32.257Z,26.10
2022-08-08T08:10:08.365Z,25.80
2022-08-08T08:12:48.510Z,25.70
2022-08-08T08:15:21.741Z,25.60
2022-08-08T08:18:01.865Z,25.50
2022-08-08T08:20:31.012Z,25.50
2022-08-08T08:23:02.179Z,25.50
2022-08-08T08:25:40.966Z,25.70
2022-08-08T08:28:16.920Z,25.70
2022-08-08T08:30:48.964Z,25.60
2022-08-08T08:33:16.571Z,25.60
2022-08-08T08:36:19.923Z,25.80
2022-08-08T08:38:32.817Z,25.80
2022-08-08T08:41:16.782Z,25.90
2022-08-08T08:43:51.063Z,25.90
2022-08-08T08:46:25.916Z,26.10
2022-08-08T08:48:55.301Z,26.10
2022-08-08T08:51:28.281Z,26.10
2022-08-08T08:54:02.489Z,26.20
2022-08-08T08:56:38.776Z,26.20
2022-08-08T08:59:15.621Z,26.30
2022-08-08T09:01:52.046Z,26.40
2022-08-08T09:04:37.964Z,26.60
2022-08-08T09:07:20.401Z,26.70
2022-08-08T09:09:54.938Z,26.70
2022-08-08T09:12:27.585Z,26.60
2022-08-08T09:14:57.997Z,26.60
2022-08-08T09:17:41.468Z,26.70
2022-08-08T09:21:59.246Z,26.80
2022-08-08T09:23:04.686Z,27.00
2022-08-08T09:25:54.620Z,27.10
2022-08-08T09:28:37.315Z,27.20
2022-08-08T09:31:24.157Z,27.30
2022-08-08T09:34:31.261Z,27.40
2022-08-08T09:36:51.607Z,27.50
2022-08-08T09:39:49.518Z,27.40
2022-08-08T09:42:23.305Z,27.30
2022-08-08T09:45:08.258Z,27.20
2022-08-08T09:48:09.754Z,27.20
2022-08-08T09:50:34.481Z,27.00
2022-08-08T09:53:24.428Z,27.00
2022-08-08T09:56:03.057Z,27.00
2022-08-08T09:58:44.596Z,27.20
2022-08-08T10:01:59.973Z,27.30
2022-08-08T10:04:08.820Z,27.40
2022-08-08T10:06:44.950Z,27.30
2022-08-08T10:09:13.314Z,27.10
2022-08-08T10:12:28.148Z,27.30
2022-08-08T10:14:38.683Z,27.50
2022-08-08T10:17:57.303Z,27.70
2022-08-08T10:20:01.123Z,27.90
2022-08-08T10:22:30.592Z,28.00
2022-08-08T10:25:15.920Z,28.20
2022-08-08T10:27:44.085Z,28.30
2022-08-08T10:30:16.776Z,28.30
2022-08-08T10:33:00.927Z,28.30
2022-08-08T10:36:07.655Z,28.10
2022-08-08T10:38:19.735Z,28.10
2022-08-08T10:40:52.046Z,27.90
2022-08-08T10:43:22.203Z,27.70
2022-08-08T10:45:57.111Z,27.70
2022-08-08T10:48:56.504Z,27.60
2022-08-08T10:51:47.202Z,27.70
2022-08-08T10:54:24.708Z,27.70
2022-08-08T10:57:00.324Z,27.60
2022-08-08T10:59:30.907Z,27.50
2022-08-08T11:01:59.829Z,27.50
2022-08-08T11:04:29.770Z,27.50
2022-08-08T11:07:39.090Z,27.60
2022-08-08T11:10:03.543Z,27.80
2022-08-08T11:12:32.302Z,27.80
2022-08-08T11:15:06.234Z,28.00
2022-08-08T11:17:59.659Z,28.10
2022-08-08T11:20:27.996Z,28.30
2022-08-08T11:23:05.358Z,28.30
2022-08-08T11:25:52.170Z,28.20
2022-08-08T11:28:29.028Z,28.10
2022-08-08T11:31:03.749Z,27.40
2022-08-08T11:33:51.953Z,27.70
2022-08-08T11:36:29.215Z,27.90
2022-08-08T11:38:57.801Z,28.30
2022-08-08T11:41:28.113Z,28.30
2022-08-08T11:44:01.098Z,28.10
2022-08-08T11:46:32.557Z,27.90
2022-08-08T11:49:07.612Z,27.80
2022-08-08T11:51:49.420Z,27.70
2022-08-08T11:54:31.902Z,27.70
2022-08-08T11:57:34.796Z,27.70
2022-08-08T12:00:07.685Z,27.80
2022-08-08T12:02:54.525Z,27.70
2022-08-08T12:05:34.055Z,27.70
2022-08-08T12:08:10.123Z,27.60
2022-08-08T12:10:48.021Z,27.70
2022-08-08T12:13:22.013Z,27.90
2022-08-08T12:16:19.258Z,28.20
2022-08-08T12:18:52.089Z,28.20
2022-08-08T12:21:25.922Z,28.50
2022-08-08T12:24:15.587Z,28.60
2022-08-08T12:26:54.156Z,28.60
2022-08-08T12:29:41.375Z,28.70
2022-08-08T12:32:13.192Z,28.60
2022-08-08T12:35:01.329Z,28.40
2022-08-08T12:37:43.488Z,28.50
2022-08-08T12:40:37.912Z,28.10
2022-08-08T12:43:46.383Z,28.00
2022-08-08T12:46:25.193Z,28.10
2022-08-08T12:49:20.759Z,28.20
2022-08-08T12:51:53.909Z,28.30
2022-08-08T12:54:36.739Z,28.40
2022-08-08T12:57:24.332Z,28.40
2022-08-08T13:00:03.679Z,28.40
2022-08-08T13:02:36.006Z,28.20
2022-08-08T13:05:15.807Z,27.70
2022-08-08T13:08:04.156Z,27.70
2022-08-08T13:10:36.543Z,27.50
2022-08-08T13:13:28.411Z,27.40
2022-08-08T13:16:21.453Z,27.70
2022-08-08T13:18:57.394Z,27.90
2022-08-08T13:21:49.187Z,28.10
2022-08-08T13:24:18.719Z,28.20
2022-08-08T13:27:11.970Z,28.30
2022-08-08T13:30:03.146Z,28.40
2022-08-08T13:32:37.746Z,28.40
2022-08-08T13:35:24.322Z,28.30
2022-08-08T13:38:07.320Z,28.00
2022-08-08T13:40:36.609Z,28.10
2022-08-08T13:43:09.130Z,28.20
2022-08-08T13:45:37.594Z,28.30
2022-08-08T13:48:12.420Z,28.40
2022-08-08T13:50:51.951Z,28.00
2022-08-08T13:53:31.648Z,27.90
2022-08-08T13:56:11.637Z,28.00
2022-08-08T13:58:57.339Z,28.00
2022-08-08T14:01:52.902Z,28.10
2022-08-08T14:04:26.078Z,27.80
2022-08-08T14:07:04.030Z,27.80
2022-08-08T14:10:05.228Z,27.90
2022-08-08T14:12:30.329Z,27.90
2022-08-08T14:14:58.018Z,28.00
2022-08-08T14:17:57.847Z,28.00
2022-08-08T14:20:15.016Z,28.00
2022-08-08T14:23:20.723Z,28.10
2022-08-08T14:26:10.602Z,27.90
2022-08-08T14:28:39.680Z,27.90
2022-08-08T14:31:23.585Z,27.90
2022-08-08T14:33:59.877Z,27.80
2022-08-08T14:36:33.799Z,27.80
2022-08-08T14:39:03.616Z,27.80
2022-08-08T14:41:53.504Z,27.70
2022-08-08T14:44:35.196Z,27.60
2022-08-08T14:47:17.006Z,27.60
2022-08-08T14:50:06.709Z,27.60
2022-08-08T14:52:41.376Z,27.60
2022-08-08T14:55:10.981Z,27.50
2022-08-08T14:58:06.379Z,27.50
2022-08-08T15:00:28.483Z,27.40
2022-08-08T15:02:58.816Z,27.40
2022-08-08T15:05:54.687Z,27.40
2022-08-08T15:08:35.007Z,27.40
2022-08-08T15:11:08.989Z,27.40
2022-08-08T15:14:01.869Z,27.40
2022-08-08T15:16:34.642Z,27.30
2022-08-08T15:19:03.335Z,27.00
2022-08-08T15:21:30.812Z,26.80
2022-08-08T15:23:58.562Z,26.80
2022-08-08T15:26:28.914Z,26.80
2022-08-08T15:28:57.634Z,26.80
2022-08-08T15:31:54.014Z,26.50
2022-08-08T15:34:28.971Z,26.30
2022-08-08T15:37:03.094Z,26.30
2022-08-08T15:39:38.125Z,26.30
2022-08-08T15:42:13.138Z,26.20
2022-08-08T15:44:45.886Z,26.30
2022-08-08T15:47:15.685Z,26.20
2022-08-08T15:49:48.434Z,26.20
2022-08-08T15:52:17.612Z,26.10
2022-08-08T15:54:47.915Z,26.10
2022-08-08T15:57:19.216Z,26.10
2022-08-08T16:00:05.944Z,26.10
2022-08-08T16:02:43.949Z,26.00
2022-08-08T16:05:14.393Z,26.00
2022-08-08T16:07:52.612Z,26.00
2022-08-08T16:13:11.732Z,25.90
2022-08-08T16:13:34.804Z,25.90
2022-08-08T16:16:09.665Z,25.80
2022-08-08T16:18:53.247Z,25.70
2022-08-08T16:21:28.066Z,25.60
2022-08-08T16:23:57.625Z,25.50
2022-08-08T16:26:33.690Z,25.50
2022-08-08T16:29:08.242Z,25.70
2022-08-08T16:31:40.867Z,25.80
2022-08-08T16:34:21.744Z,25.70
2022-08-08T16:36:50.559Z,25.60
2022-08-08T16:39:59.555Z,25.40
2022-08-08T16:42:06.268Z,25.30
2022-08-08T16:44:34.581Z,25.20
2022-08-08T16:47:41.705Z,25.10
2022-08-08T16:50:16.695Z,25.10
2022-08-08T16:55:02.067Z,25.00
2022-08-08T16:55:53.500Z,24.90
2022-08-08T16:58:28.333Z,24.80
2022-08-08T17:01:00.834Z,24.70
2022-08-08T17:03:58.474Z,24.70
2022-08-08T17:06:36.940Z,24.60
2022-08-08T17:09:04.555Z,24.60
2022-08-08T17:11:39.141Z,24.50
2022-08-08T17:14:18.823Z,24.40
2022-08-08T17:16:57.327Z,24.40
2022-08-08T17:19:27.518Z,24.30
2022-08-08T17:21:57.449Z,24.30
2022-08-08T17:24:29.835Z,24.20
2022-08-08T17:26:59.170Z,24.20
2022-08-08T17:29:33.398Z,24.10
2022-08-08T17:32:02.915Z,24.10
2022-08-08T17:34:49.419Z,24.00
2022-08-08T17:37:23.055Z,23.90
2022-08-08T17:40:10.823Z,23.90
2022-08-08T17:42:41.071Z,23.80
2022-08-08T17:45:22.691Z,23.70
2022-08-08T17:47:51.374Z,23.70
2022-08-08T17:50:19.114Z,23.70
2022-08-08T17:52:47.540Z,23.70
2022-08-08T17:56:03.547Z,23.60
2022-08-08T17:58:03.246Z,23.60
2022-08-08T18:00:31.774Z,23.60
2022-08-08T18:03:08.957Z,23.50
2022-08-08T18:05:49.733Z,23.50
2022-08-08T18:08:24.455Z,23.50
2022-08-08T18:11:11.646Z,23.40
2022-08-08T18:13:41.995Z,23.30
2022-08-08T18:16:10.516Z,23.30
2022-08-08T18:18:42.622Z,23.30
2022-08-08T18:21:34.595Z,23.20
2022-08-08T18:24:00.530Z,23.10
2022-08-08T18:26:31.450Z,23.10
2022-08-08T18:29:01.623Z,23.00
2022-08-08T18:31:29.023Z,23.00
2022-08-08T18:34:25.615Z,22.90
2022-08-08T18:36:44.638Z,22.90
2022-08-08T18:39:27.288Z,22.90
2022-08-08T18:42:03.213Z,22.90
2022-08-08T18:44:34.474Z,22.80
2022-08-08T18:47:03.871Z,22.80
2022-08-08T18:49:57.295Z,22.70
2022-08-08T18:52:22.693Z,22.70
2022-08-08T18:55:01.052Z,22.60
2022-08-08T18:57:41.329Z,22.60
2022-08-08T19:00:20.211Z,22.60
2022-08-08T19:02:55.330Z,22.50
2022-08-08T19:05:34.251Z,22.50
2022-08-08T19:08:24.510Z,22.50
2022-08-08T19:10:59.745Z,22.40
2022-08-08T19:13:38.259Z,22.40
2022-08-08T19:16:18.968Z,22.40
2022-08-08T19:18:54.453Z,22.30
2022-08-08T19:21:31.042Z,22.20
2022-08-08T19:24:05.149Z,22.20
2022-08-08T19:26:37.626Z,22.20
2022-08-08T19:29:06.018Z,22.20
2022-08-08T19:31:35.022Z,22.20
2022-08-08T19:34:30.134Z,22.10
2022-08-08T19:36:58.893Z,22.10
2022-08-08T19:39:34.935Z,22.00
2022-08-08T19:42:05.202Z,22.00
2022-08-08T19:44:45.482Z,22.00
2022-08-08T19:47:14.858Z,22.00
2022-08-08T19:49:59.863Z,21.90
2022-08-08T19:52:34.653Z,22.00
2022-08-08T19:55:11.530Z,21.90
2022-08-08T19:57:44.436Z,21.90
2022-08-08T20:00:29.172Z,21.90
2022-08-08T20:02:57.946Z,21.90
2022-08-08T20:06:15.311Z,21.80
2022-08-08T20:08:28.648Z,21.80
2022-08-08T20:11:00.729Z,21.80
2022-08-08T20:14:12.257Z,21.80
2022-08-08T20:16:17.530Z,21.70
2022-08-08T20:18:52.666Z,21.70
2022-08-08T20:21:25.319Z,21.70
2022-08-08T20:23:58.006Z,21.60
2022-08-08T20:26:34.037Z,21.60
2022-08-08T20:29:06.874Z,21.60
2022-08-08T20:32:02.892Z,21.60
2022-08-08T20:34:29.904Z,21.60
2022-08-08T20:37:03.389Z,21.60
2022-08-08T20:39:39.102Z,21.50
2022-08-08T20:42:29.352Z,21.50
2022-08-08T20:44:57.207Z,21.40
2022-08-08T20:47:25.339Z,21.40
2022-08-08T20:49:57.521Z,21.40
2022-08-08T20:52:28.205Z,21.40
2022-08-08T20:54:57.034Z,21.40
2022-08-08T20:57:27.107Z,21.40
2022-08-08T20:59:56.135Z,21.30
2022-08-08T21:02:26.147Z,21.30
2022-08-08T21:05:00.923Z,21.30
2022-08-08T21:07:47.411Z,21.30
2022-08-08T21:10:20.821Z,21.30
2022-08-08T21:12:54.551Z,21.30
2022-08-08T21:16:06.200Z,21.20
2022-08-08T21:18:11.854Z,21.20
2022-08-08T21:20:41.987Z,21.20
2022-08-08T21:23:13.283Z,21.20
2022-08-08T21:25:49.031Z,21.20
2022-08-08T21:28:19.521Z,21.20
2022-08-08T21:31:22.092Z,21.10
2022-08-08T21:33:52.132Z,21.10
2022-08-08T21:36:28.732Z,21.10
2022-08-08T21:38:57.105Z,21.10
2022-08-08T21:41:38.534Z,21.00
2022-08-08T21:44:13.295Z,21.00
2022-08-08T21:48:04.625Z,21.00
2022-08-08T21:49:31.803Z,21.00
2022-08-08T21:54:30.894Z,21.00
2022-08-08T21:55:01.903Z,21.00
2022-08-08T21:57:42.456Z,21.00
2022-08-08T22:00:14.457Z,20.90
